Weather at Darłówek Naval Air Base

Public forecast

Using degrees Celsius for public forecast. Weather courtesy of forecast.io.

Closest aviation weather report (METAR) to Darłówek Naval Air Base

Closest report is Bornholm Airport, 67.9 nm (125.8 km) NW. Retrieved 2021/06/13 16:20 UTC (0 seconds ago):

EKRN 131620Z AUTO 28011KT 9999 NCD 16/11 Q1021

Closest aviation forecast (TAF) to Darłówek Naval Air Base

Forecast is more than 12 hours old.

Closest forecast is Bornholm Airport, 67.9 nm (125.8 km) NW. Retrieved 2020/10/13 06:33 UTC (8 months ago):

TAF EKRN 130526Z 1306/1415 03008KT 9999 SCT025